createdAt,value
2019-04-12T00:00:12.971Z,68.19
2019-04-12T00:01:12.965Z,68.29
2019-04-12T00:02:13.205Z,68.76
2019-04-12T00:03:13.202Z,68.29
2019-04-12T00:04:12.935Z,68.66
2019-04-12T00:05:12.924Z,68.57
2019-04-12T00:06:13.166Z,69.33
2019-04-12T00:07:13.155Z,68.57
2019-04-12T00:08:13.147Z,68.95
2019-04-12T00:09:13.145Z,68.95
2019-04-12T00:10:12.910Z,68.95
2019-04-12T00:11:12.878Z,68.85
2019-04-12T00:12:12.922Z,68.85
2019-04-12T00:13:12.855Z,68.66
2019-04-12T00:14:12.848Z,69.23
2019-04-12T00:15:14.355Z,69.42
2019-04-12T00:16:16.442Z,69.23
2019-04-12T00:17:16.001Z,69.61
2019-04-12T00:18:17.108Z,69.33
2019-04-12T00:19:16.171Z,69.71
2019-04-12T00:20:16.182Z,69.04
2019-04-12T00:21:17.263Z,69.33
2019-04-12T00:22:15.576Z,69.04
2019-04-12T00:23:13.713Z,69.23
2019-04-12T00:24:13.962Z,69.23
2019-04-12T00:25:14.901Z,69.71
2019-04-12T00:26:12.983Z,69.71
2019-04-12T00:27:12.733Z,69.52
2019-04-12T00:28:12.968Z,69.8
2019-04-12T00:29:12.954Z,70.18
2019-04-12T00:30:12.701Z,70.56
2019-04-12T00:31:12.930Z,69.99
2019-04-12T00:32:12.927Z,70.28
2019-04-12T00:33:12.669Z,70.84
2019-04-12T00:34:12.911Z,70.09
2019-04-12T00:35:12.923Z,70.18
2019-04-12T00:36:12.889Z,70.15
2019-04-12T00:37:12.639Z,70.34
2019-04-12T00:38:12.622Z,70.9
2019-04-12T00:39:12.868Z,71.66
2019-04-12T00:40:12.880Z,71.66
2019-04-12T00:41:12.853Z,71.19
2019-04-12T00:42:12.845Z,71.47
2019-04-12T00:43:12.594Z,72.04
2019-04-12T00:44:12.581Z,72.42
2019-04-12T00:45:12.560Z,72.04
2019-04-12T00:46:12.549Z,72.04
2019-04-12T00:47:12.809Z,72.33
2019-04-12T00:48:13.209Z,72.04
2019-04-12T00:49:12.855Z,71.66
2019-04-12T00:50:14.262Z,71.57
2019-04-12T00:51:15.134Z,71.66
2019-04-12T00:52:16.397Z,72.23
2019-04-12T00:53:15.807Z,72.23
2019-04-12T00:54:13.548Z,72.42
2019-04-12T00:55:12.709Z,71.95
2019-04-12T00:56:12.702Z,71.95
2019-04-12T00:57:15.373Z,71.66
2019-04-12T00:58:15.852Z,71.76
2019-04-12T00:59:17.041Z,71.76
2019-04-12T01:00:12.663Z,71.47
2019-04-12T01:01:12.654Z,71.76
2019-04-12T01:02:15.248Z,72.04
2019-04-12T01:03:13.961Z,71.76
2019-04-12T01:04:15.762Z,72.61
2019-04-12T01:05:16.797Z,72.61
2019-04-12T01:06:12.610Z,71.76
2019-04-12T01:07:12.595Z,71.95
2019-04-12T01:08:12.595Z,72.33
2019-04-12T01:09:12.585Z,71.95
2019-04-12T01:10:12.572Z,72.52
2019-04-12T01:11:12.562Z,72.89
2019-04-12T01:12:12.554Z,73.08
2019-04-12T01:13:12.544Z,73.27
2019-04-12T01:14:12.283Z,72.89
2019-04-12T01:15:12.528Z,73.75
2019-04-12T01:16:12.267Z,73.46
2019-04-12T01:17:12.511Z,73.08
2019-04-12T01:18:12.258Z,73.18
2019-04-12T01:19:12.485Z,73.46
2019-04-12T01:20:12.487Z,72.99
2019-04-12T01:21:12.465Z,73.37
2019-04-12T01:22:12.461Z,73.84
2019-04-12T01:23:13.780Z,73.37
2019-04-12T01:24:13.875Z,73.75
2019-04-12T01:25:15.970Z,73.65
2019-04-12T01:26:13.003Z,74.51
2019-04-12T01:27:12.416Z,74.32
2019-04-12T01:28:12.402Z,74.03
2019-04-12T01:29:12.423Z,74.22
2019-04-12T01:30:12.142Z,74.32
2019-04-12T01:31:12.136Z,74.22
2019-04-12T01:32:12.359Z,74.69
2019-04-12T01:33:12.102Z,74.32
2019-04-12T01:34:12.343Z,74.69
2019-04-12T01:35:12.103Z,74.98
2019-04-12T01:36:12.081Z,75.55
2019-04-12T01:37:12.319Z,74.98
2019-04-12T01:38:12.322Z,75.26
2019-04-12T01:39:12.288Z,75.04
2019-04-12T01:40:12.045Z,75.36
2019-04-12T01:41:12.275Z,75.36
2019-04-12T01:42:12.278Z,75.13
2019-04-12T01:43:12.005Z,75.6
2019-04-12T01:44:11.997Z,75.6
2019-04-12T01:45:11.985Z,75.89
2019-04-12T01:46:12.000Z,75.98
2019-04-12T01:47:12.215Z,76.17
2019-04-12T01:48:12.236Z,76.46
2019-04-12T01:49:12.213Z,76.55
2019-04-12T01:50:12.197Z,76.46
2019-04-12T01:51:12.175Z,76.74
2019-04-12T01:52:12.163Z,77.03
2019-04-12T01:53:11.902Z,77.4
2019-04-12T01:54:12.151Z,77.31
2019-04-12T01:55:12.158Z,77.97
2019-04-12T01:56:11.871Z,77.69
2019-04-12T01:57:11.862Z,78.16
2019-04-12T01:58:12.102Z,77.97
2019-04-12T01:59:11.842Z,78.07
2019-04-12T02:00:12.096Z,78.07
2019-04-12T02:01:12.112Z,77.4
2019-04-12T02:02:11.822Z,77.88
2019-04-12T02:03:12.063Z,77.78
2019-04-12T02:04:11.789Z,78.07
2019-04-12T02:05:11.789Z,77.97
2019-04-12T02:06:12.034Z,77.69
2019-04-12T02:07:11.777Z,78.26
2019-04-12T02:08:12.019Z,77.69
2019-04-12T02:09:11.994Z,77.12
2019-04-12T02:10:11.993Z,76.93
2019-04-12T02:11:11.724Z,76.93
2019-04-12T02:12:11.972Z,76.93
2019-04-12T02:13:11.983Z,76.84
2019-04-12T02:14:11.937Z,76.55
2019-04-12T02:15:11.936Z,76.46
2019-04-12T02:16:11.931Z,76.74
2019-04-12T02:17:11.907Z,77.03
2019-04-12T02:18:11.656Z,77.59
2019-04-12T02:19:11.894Z,77.97
2019-04-12T02:20:11.628Z,77.88
2019-04-12T02:21:11.864Z,77.97
2019-04-12T02:22:11.612Z,77.31
2019-04-12T02:23:11.848Z,77.78
2019-04-12T02:24:11.836Z,77.69
2019-04-12T02:25:25.978Z,78.16
2019-04-12T02:26:11.821Z,77.78
2019-04-12T02:27:11.561Z,78.07
2019-04-12T02:28:11.806Z,78.16
2019-04-12T02:29:11.791Z,78.26
2019-04-12T02:30:11.795Z,78.16
2019-04-12T02:31:11.848Z,77.88
2019-04-12T02:32:11.766Z,77.78
2019-04-12T02:33:11.532Z,78.16
2019-04-12T02:34:11.491Z,78.16
2019-04-12T02:35:11.488Z,77.97
2019-04-12T02:36:11.732Z,77.97
2019-04-12T02:37:11.722Z,78.07
2019-04-12T02:38:11.492Z,77.31
2019-04-12T02:39:11.692Z,77.31
2019-04-12T02:40:11.694Z,77.31
2019-04-12T02:41:11.425Z,77.5
2019-04-12T02:42:11.667Z,77.22
2019-04-12T02:43:11.653Z,77.5
2019-04-12T02:44:11.642Z,77.97
2019-04-12T02:45:11.390Z,77.88
2019-04-12T02:46:11.616Z,77.78
2019-04-12T02:47:11.606Z,77.31
2019-04-12T02:48:11.380Z,76.84
2019-04-12T02:49:11.598Z,76.84
2019-04-12T02:50:11.584Z,77.4
2019-04-12T02:51:11.611Z,77.22
2019-04-12T02:52:11.572Z,77.22
2019-04-12T02:53:11.299Z,77.5
2019-04-12T02:54:11.535Z,77.97
2019-04-12T02:55:11.550Z,78.07
2019-04-12T02:56:11.515Z,78.16
2019-04-12T02:57:11.503Z,78.07
2019-04-12T02:58:11.491Z,77.22
2019-04-12T02:59:11.502Z,77.59
2019-04-12T03:00:11.582Z,77.5
2019-04-12T03:01:11.495Z,77.88
2019-04-12T03:02:11.203Z,78.16
2019-04-12T03:03:11.521Z,78.83
2019-04-12T03:04:11.437Z,78.45
2019-04-12T03:05:11.429Z,78.83
2019-04-12T03:06:11.425Z,78.73
2019-04-12T03:07:11.173Z,79.64
2019-04-12T03:08:11.395Z,79.68
2019-04-12T03:09:11.399Z,78.88
2019-04-12T03:10:11.373Z,78.79
2019-04-12T03:11:11.363Z,79.36
2019-04-12T03:12:11.343Z,79.49
2019-04-12T03:13:11.366Z,79.21
2019-04-12T03:14:11.342Z,79.3
2019-04-12T03:15:11.318Z,79.17
2019-04-12T03:16:11.316Z,79.45
2019-04-12T03:17:11.050Z,79.77
2019-04-12T03:18:11.293Z,80.3
2019-04-12T03:19:11.285Z,80.11
2019-04-12T03:20:11.269Z,80.4
2019-04-12T03:21:11.255Z,80.49
2019-04-12T03:22:11.252Z,80.49
2019-04-12T03:23:10.989Z,81.15
2019-04-12T03:24:11.227Z,80.77
2019-04-12T03:25:11.216Z,80.49
2019-04-12T03:26:10.971Z,80.68
2019-04-12T03:27:11.209Z,80.4
2019-04-12T03:28:11.185Z,80.68
2019-04-12T03:29:11.174Z,81.25
2019-04-12T03:30:11.169Z,80.87
2019-04-12T03:31:11.167Z,81.25
2019-04-12T03:32:11.173Z,81.53
2019-04-12T03:33:11.150Z,82.1
2019-04-12T03:34:11.137Z,81.53
2019-04-12T03:35:11.171Z,81.25
2019-04-12T03:36:11.126Z,80.49
2019-04-12T03:37:11.091Z,80.21
2019-04-12T03:38:11.083Z,80.25
2019-04-12T03:39:11.081Z,80.58
2019-04-12T03:40:11.069Z,80.53
2019-04-12T03:41:10.811Z,80.21
2019-04-12T03:42:11.082Z,80.3
2019-04-12T03:43:10.780Z,80.21
2019-04-12T03:44:11.013Z,80.3
2019-04-12T03:45:11.025Z,80.15
2019-04-12T03:46:11.008Z,80.25
2019-04-12T03:47:11.037Z,80.53
2019-04-12T03:48:10.983Z,80.02
2019-04-12T03:49:10.712Z,80.49
2019-04-12T03:50:10.961Z,80.68
2019-04-12T03:51:10.955Z,80.4
2019-04-12T03:52:10.702Z,79.58
2019-04-12T03:53:10.675Z,79.21
2019-04-12T03:54:10.911Z,78.83
2019-04-12T03:55:10.655Z,78.83
2019-04-12T03:56:11.782Z,78.64
2019-04-12T03:57:10.635Z,79.02
2019-04-12T03:58:10.870Z,78.64
2019-04-12T03:59:10.869Z,78.07
2019-04-12T04:00:10.611Z,77.97
2019-04-12T04:01:10.596Z,77.88
2019-04-12T04:02:10.592Z,78.83
2019-04-12T04:03:10.580Z,78.35
2019-04-12T04:04:10.823Z,77.97
2019-04-12T04:05:10.820Z,78.35
2019-04-12T04:06:10.790Z,78.26
2019-04-12T04:07:10.781Z,77.97
2019-04-12T04:08:10.538Z,77.4
2019-04-12T04:09:10.761Z,77.5
2019-04-12T04:10:10.752Z,77.4
2019-04-12T04:11:10.744Z,78.07
2019-04-12T04:12:10.752Z,78.26
2019-04-12T04:13:10.720Z,77.78
2019-04-12T04:14:10.710Z,77.78
2019-04-12T04:15:10.704Z,77.97
2019-04-12T04:16:10.688Z,77.31
2019-04-12T04:17:10.432Z,76.84
2019-04-12T04:18:10.424Z,76.84
2019-04-12T04:19:10.657Z,77.12
2019-04-12T04:20:10.653Z,77.22
2019-04-12T04:21:10.400Z,77.03
2019-04-12T04:22:10.638Z,76.65
2019-04-12T04:23:10.619Z,77.12
2019-04-12T04:24:10.627Z,76.84
2019-04-12T04:25:10.617Z,76.65
2019-04-12T04:26:25.696Z,76.55
2019-04-12T04:27:10.601Z,76.55
2019-04-12T04:28:10.333Z,77.12
2019-04-12T04:29:10.570Z,77.12
2019-04-12T04:30:10.572Z,77.12
2019-04-12T04:31:10.574Z,77.31
2019-04-12T04:32:10.547Z,77.03
2019-04-12T04:33:10.606Z,77.12
2019-04-12T04:34:10.545Z,76.74
2019-04-12T04:35:10.572Z,76.74
2019-04-12T04:36:10.264Z,76.93
2019-04-12T04:37:10.482Z,76.36
2019-04-12T04:38:10.486Z,76.17
2019-04-12T04:39:10.463Z,76.84
2019-04-12T04:40:10.463Z,77.22
2019-04-12T04:41:10.442Z,77.03
2019-04-12T04:42:10.453Z,76.65
2019-04-12T04:43:10.430Z,77.03
2019-04-12T04:44:10.414Z,77.03
2019-04-12T04:45:10.420Z,77.12
2019-04-12T04:46:10.399Z,77.4
2019-04-12T04:47:10.153Z,77.31
2019-04-12T04:48:10.382Z,77.12
2019-04-12T04:49:10.365Z,76.93
2019-04-12T04:50:10.410Z,76.55
2019-04-12T04:51:10.399Z,76.55
2019-04-12T04:52:10.089Z,76.46
2019-04-12T04:53:10.071Z,76.17
2019-04-12T04:54:10.071Z,76.08
2019-04-12T04:55:10.055Z,75.89
2019-04-12T04:56:10.339Z,76.08
2019-04-12T04:57:10.037Z,76.36
2019-04-12T04:58:10.287Z,76.27
2019-04-12T04:59:10.264Z,75.79
2019-04-12T05:00:10.002Z,76.46
2019-04-12T05:01:10.242Z,76.65
2019-04-12T05:02:10.234Z,76.17
2019-04-12T05:03:10.977Z,75.04
2019-04-12T05:04:10.224Z,75.7
2019-04-12T05:05:10.002Z,76.08
2019-04-12T05:06:10.192Z,75.7
2019-04-12T05:07:09.934Z,74.98
2019-04-12T05:08:10.197Z,75.84
2019-04-12T05:09:12.373Z,75.51
2019-04-12T05:10:10.167Z,75.55
2019-04-12T05:11:10.142Z,76.17
2019-04-12T05:12:10.132Z,76.12
2019-04-12T05:13:09.879Z,76.21
2019-04-12T05:14:09.868Z,75.55
2019-04-12T05:15:10.130Z,75.64
2019-04-12T05:16:09.858Z,76.17
2019-04-12T05:17:10.102Z,75.07
2019-04-12T05:18:10.089Z,74.88
2019-04-12T05:19:09.821Z,74.85
2019-04-12T05:20:10.109Z,76.17
2019-04-12T05:21:10.047Z,75.51
2019-04-12T05:22:09.807Z,76.12
2019-04-12T05:23:10.028Z,75.98
2019-04-12T05:24:09.800Z,76.17
2019-04-12T05:25:10.019Z,76.4
2019-04-12T05:26:10.003Z,76.03
2019-04-12T05:27:09.994Z,75.93
2019-04-12T05:28:09.734Z,75.74
2019-04-12T05:29:09.730Z,75.55
2019-04-12T05:30:09.713Z,75.45
2019-04-12T05:31:09.960Z,74.88
2019-04-12T05:32:09.949Z,74.51
2019-04-12T05:33:09.966Z,74.22
2019-04-12T05:34:09.679Z,74.69
2019-04-12T05:35:09.914Z,75.26
2019-04-12T05:36:09.986Z,74.98
2019-04-12T05:37:13.047Z,74.32
2019-04-12T05:38:09.651Z,74.32
2019-04-12T05:39:09.884Z,74.32
2019-04-12T05:40:09.870Z,75.07
2019-04-12T05:41:09.877Z,74.22
2019-04-12T05:42:09.859Z,74.41
2019-04-12T05:43:09.905Z,74.22
2019-04-12T05:44:09.922Z,74.88
2019-04-12T05:45:09.621Z,74.22
2019-04-12T05:46:10.046Z,74.32
2019-04-12T05:47:09.808Z,74.41
2019-04-12T05:48:09.809Z,73.65
2019-04-12T05:49:09.780Z,73.56
2019-04-12T05:50:09.522Z,73.37
2019-04-12T05:51:09.754Z,74.03
2019-04-12T05:52:09.502Z,74.51
2019-04-12T05:53:09.753Z,74.51
2019-04-12T05:54:09.732Z,73.84
2019-04-12T05:55:09.612Z,74.03
2019-04-12T05:56:09.476Z,74.22
2019-04-12T05:57:09.458Z,73.56
2019-04-12T05:58:09.462Z,73.46
2019-04-12T05:59:09.691Z,73.84
2019-04-12T06:00:11.907Z,73.46
2019-04-12T06:01:09.695Z,73.08
2019-04-12T06:02:09.448Z,73.37
2019-04-12T06:03:09.406Z,73.84
2019-04-12T06:04:09.652Z,74.41
2019-04-12T06:05:10.721Z,74.88
2019-04-12T06:06:09.629Z,73.84
2019-04-12T06:07:09.616Z,74.22
2019-04-12T06:08:09.607Z,74.13
2019-04-12T06:09:09.605Z,73.75
2019-04-12T06:10:11.546Z,73.56
2019-04-12T06:11:09.578Z,72.99
2019-04-12T06:12:09.320Z,73.08
2019-04-12T06:13:09.561Z,73.18
2019-04-12T06:14:09.570Z,73.46
2019-04-12T06:15:09.286Z,73.56
2019-04-12T06:16:09.534Z,74.03
2019-04-12T06:17:09.527Z,73.84
2019-04-12T06:18:09.645Z,74.03
2019-04-12T06:19:09.287Z,74.22
2019-04-12T06:20:09.497Z,73.84
2019-04-12T06:21:09.486Z,73.84
2019-04-12T06:22:09.471Z,73.65
2019-04-12T06:23:09.223Z,73.46
2019-04-12T06:24:09.488Z,73.56
2019-04-12T06:25:09.465Z,73.18
2019-04-12T06:26:09.442Z,72.61
2019-04-12T06:27:12.847Z,72.89
2019-04-12T06:28:09.429Z,74.13
2019-04-12T06:29:09.416Z,74.13
2019-04-12T06:30:09.407Z,73.75
2019-04-12T06:31:09.401Z,73.65
2019-04-12T06:32:09.386Z,72.89
2019-04-12T06:33:09.384Z,72.64
2019-04-12T06:34:09.370Z,72.17
2019-04-12T06:35:09.364Z,71.85
2019-04-12T06:36:09.367Z,72.36
2019-04-12T06:37:09.341Z,71.98
2019-04-12T06:38:09.356Z,72.27
2019-04-12T06:39:09.330Z,71.7
2019-04-12T06:40:09.315Z,71.8
2019-04-12T06:41:09.311Z,72.17
2019-04-12T06:42:09.341Z,71.8
2019-04-12T06:43:09.042Z,71.98
2019-04-12T06:44:09.288Z,72.08
2019-04-12T06:45:09.277Z,71.8
2019-04-12T06:46:09.270Z,72.45
2019-04-12T06:47:09.004Z,71.41
2019-04-12T06:48:09.263Z,71.41
2019-04-12T06:49:08.987Z,71.51
2019-04-12T06:50:09.237Z,70.75
2019-04-12T06:51:09.009Z,71.03
2019-04-12T06:52:09.220Z,70.94
2019-04-12T06:53:08.949Z,70.94
2019-04-12T06:54:09.200Z,70.94
2019-04-12T06:55:09.184Z,71.51
2019-04-12T06:56:09.173Z,70.84
2019-04-12T06:57:08.930Z,69.99
2019-04-12T06:58:09.160Z,69.9
2019-04-12T06:59:08.906Z,70.09
2019-04-12T07:00:08.904Z,69.9
2019-04-12T07:01:10.509Z,71.13
2019-04-12T07:02:08.877Z,70.56
2019-04-12T07:03:09.116Z,70.47
2019-04-12T07:04:08.864Z,70.75
2019-04-12T07:05:08.860Z,70.47
2019-04-12T07:06:09.095Z,70.65
2019-04-12T07:07:09.083Z,70.75
2019-04-12T07:08:09.241Z,70.56
2019-04-12T07:09:08.936Z,70.75
2019-04-12T07:10:08.816Z,70.28
2019-04-12T07:11:09.052Z,70.65
2019-04-12T07:12:09.069Z,71.13
2019-04-12T07:13:09.035Z,70.18
2019-04-12T07:14:09.040Z,68.7
2019-04-12T07:15:08.779Z,67.56
2019-04-12T07:16:09.009Z,67.94
2019-04-12T07:17:08.758Z,68.19
2019-04-12T07:18:08.752Z,68.57
2019-04-12T07:19:08.982Z,68.13
2019-04-12T07:20:08.985Z,68.41
2019-04-12T07:21:08.718Z,68.04
2019-04-12T07:22:08.721Z,68.13
2019-04-12T07:23:08.956Z,67.75
2019-04-12T07:24:08.951Z,67.46
2019-04-12T07:25:08.708Z,67.46
2019-04-12T07:26:08.939Z,67.75
2019-04-12T07:27:08.921Z,67.75
2019-04-12T07:28:08.919Z,67.46
2019-04-12T07:29:08.931Z,66.8
2019-04-12T07:30:08.943Z,66.36
2019-04-12T07:31:08.903Z,65.69
2019-04-12T07:32:08.643Z,65.79
2019-04-12T07:33:08.907Z,65.98
2019-04-12T07:34:08.890Z,65.88
2019-04-12T07:35:08.867Z,65.31
2019-04-12T07:36:08.895Z,65.5
2019-04-12T07:37:08.618Z,65.98
2019-04-12T07:38:08.864Z,66.36
2019-04-12T07:39:08.845Z,65.6
2019-04-12T07:40:08.870Z,64.94
2019-04-12T07:41:08.838Z,64.56
2019-04-12T07:42:08.575Z,64.94
2019-04-12T07:43:08.811Z,65.41
2019-04-12T07:44:10.339Z,66.27
2019-04-12T07:45:08.549Z,66.08
2019-04-12T07:46:08.790Z,66.17
2019-04-12T07:47:08.538Z,65.6
2019-04-12T07:48:08.781Z,65.5
2019-04-12T07:49:08.816Z,65.03
2019-04-12T07:50:08.764Z,65.12
2019-04-12T07:51:08.754Z,64.46
2019-04-12T07:52:08.761Z,64.3
2019-04-12T07:53:08.741Z,64.11
2019-04-12T07:54:08.738Z,64.49
2019-04-12T07:55:08.741Z,64.11
2019-04-12T07:56:08.483Z,62.91
2019-04-12T07:57:08.729Z,62.05
2019-04-12T07:58:08.473Z,61.39
2019-04-12T07:59:08.461Z,61.39
2019-04-12T08:00:08.710Z,59.9
2019-04-12T08:01:08.701Z,58.22
2019-04-12T08:02:08.695Z,57.07
2019-04-12T08:03:08.451Z,56.98
2019-04-12T08:04:08.694Z,57.45
2019-04-12T08:05:08.432Z,57.55
2019-04-12T08:06:10.079Z,57.07
2019-04-12T08:07:08.417Z,57.26
2019-04-12T08:08:08.669Z,57.55
2019-04-12T08:09:08.657Z,57.36
2019-04-12T08:10:08.408Z,56.79
2019-04-12T08:11:08.406Z,56.88
2019-04-12T08:12:08.399Z,58
2019-04-12T08:13:08.640Z,58.47
2019-04-12T08:14:08.390Z,58.18
2019-04-12T08:15:15.736Z,58.37
2019-04-12T08:16:08.379Z,57.17
2019-04-12T08:17:08.385Z,56.6
2019-04-12T08:18:08.630Z,56.51
2019-04-12T08:19:08.398Z,56.51
2019-04-12T08:20:08.381Z,57.36
2019-04-12T08:21:08.362Z,56.51
2019-04-12T08:22:08.605Z,55.36
2019-04-12T08:23:08.376Z,55.83
2019-04-12T08:24:08.613Z,56.12
2019-04-12T08:25:08.343Z,56.51
2019-04-12T08:26:08.341Z,55.83
2019-04-12T08:27:08.585Z,55.1
2019-04-12T08:28:08.601Z,54.53
2019-04-12T08:29:08.342Z,54.91
2019-04-12T08:30:09.954Z,54.82
2019-04-12T08:31:08.343Z,55.01
2019-04-12T08:32:08.375Z,56.03
2019-04-12T08:33:08.394Z,56.31
2019-04-12T08:34:08.569Z,57.14
2019-04-12T08:35:08.326Z,57.43
2019-04-12T08:36:08.563Z,58.28
2019-04-12T08:37:09.360Z,58.37
2019-04-12T08:38:08.554Z,58.28
2019-04-12T08:39:08.321Z,58.66
2019-04-12T08:40:08.320Z,58.95
2019-04-12T08:41:10.452Z,58.47
2019-04-12T08:42:11.077Z,58.28
2019-04-12T08:43:08.284Z,58.85
2019-04-12T08:44:08.280Z,59.14
2019-04-12T08:45:08.524Z,59.33
2019-04-12T08:46:08.518Z,58.57
2019-04-12T08:47:08.542Z,59.14
2019-04-12T08:48:08.855Z,58.95
2019-04-12T08:49:08.528Z,58.66
2019-04-12T08:50:08.534Z,58.28
2019-04-12T08:51:08.274Z,57.24
2019-04-12T08:52:08.314Z,57.33
2019-04-12T08:53:08.434Z,57.52
2019-04-12T08:54:08.504Z,56.76
2019-04-12T08:55:08.519Z,57.45
2019-04-12T08:56:08.577Z,56.22
2019-04-12T08:57:08.554Z,55.83
2019-04-12T08:58:13.630Z,55.93
2019-04-12T08:59:08.359Z,55.83
2019-04-12T09:00:08.549Z,57.17
2019-04-12T09:01:08.540Z,56.22
2019-04-12T09:02:08.254Z,55.27
2019-04-12T09:03:08.613Z,55.93
2019-04-12T09:04:08.505Z,55.17
2019-04-12T09:05:08.482Z,55.1
2019-04-12T09:06:08.537Z,55.55
2019-04-12T09:07:08.548Z,56.22
2019-04-12T09:08:08.589Z,56.03
2019-04-12T09:09:08.335Z,56.03
2019-04-12T09:10:08.480Z,55.93
2019-04-12T09:11:08.531Z,56.12
2019-04-12T09:12:08.259Z,56.51
2019-04-12T09:13:08.259Z,56.98
2019-04-12T09:14:08.442Z,57.07
2019-04-12T09:15:08.260Z,56.79
2019-04-12T09:16:08.524Z,56.79
2019-04-12T09:17:08.482Z,56.6
2019-04-12T09:18:08.580Z,56.15
2019-04-12T09:19:08.501Z,54.91
2019-04-12T09:20:08.527Z,54.35
2019-04-12T09:21:08.440Z,54.63
2019-04-12T09:22:08.504Z,54.44
2019-04-12T09:23:08.434Z,54.82
2019-04-12T09:24:09.991Z,54.89
2019-04-12T09:25:08.514Z,55.49
2019-04-12T09:26:08.488Z,56.12
2019-04-12T09:27:08.395Z,56.41
2019-04-12T09:28:09.787Z,56.41
2019-04-12T09:29:08.454Z,55.46
2019-04-12T09:30:08.356Z,55.49
2019-04-12T09:31:08.383Z,55.93
2019-04-12T09:32:08.396Z,56.22
2019-04-12T09:33:08.616Z,56.41
2019-04-12T09:34:19.245Z,55.83
2019-04-12T09:35:08.358Z,56.03
2019-04-12T09:36:08.099Z,56.79
2019-04-12T09:37:09.137Z,56.31
2019-04-12T09:38:08.333Z,56.79
2019-04-12T09:39:08.091Z,55.93
2019-04-12T09:40:08.328Z,55.55
2019-04-12T09:41:08.317Z,55.58
2019-04-12T09:42:08.054Z,55.1
2019-04-12T09:43:08.299Z,54.72
2019-04-12T09:44:08.300Z,55.36
2019-04-12T09:45:08.044Z,55.83
2019-04-12T09:46:08.295Z,56.22
2019-04-12T09:47:08.279Z,56.31
2019-04-12T09:48:08.280Z,56.41
2019-04-12T09:49:08.284Z,56.12
2019-04-12T09:50:08.039Z,55.93
2019-04-12T09:51:08.284Z,55.74
2019-04-12T09:52:08.268Z,55.58
2019-04-12T09:53:08.001Z,54.35
2019-04-12T09:54:08.262Z,54.06
2019-04-12T09:55:08.328Z,54.44
2019-04-12T09:56:08.242Z,55.1
2019-04-12T09:57:08.255Z,56.05
2019-04-12T09:58:08.233Z,55.68
2019-04-12T09:59:08.261Z,56.12
2019-04-12T10:00:08.227Z,55.93
2019-04-12T10:01:08.229Z,56.05
2019-04-12T10:02:15.993Z,55.96
2019-04-12T10:03:07.971Z,55.49
2019-04-12T10:04:08.209Z,55.2
2019-04-12T10:05:07.990Z,55.68
2019-04-12T10:06:08.238Z,55.58
2019-04-12T10:07:08.203Z,56.15
2019-04-12T10:08:08.189Z,55.29
2019-04-12T10:09:08.199Z,55.1
2019-04-12T10:10:08.187Z,55.01
2019-04-12T10:11:07.943Z,55.55
2019-04-12T10:12:08.178Z,55.83
2019-04-12T10:13:08.175Z,55.58
2019-04-12T10:14:09.911Z,56.03
2019-04-12T10:15:08.193Z,55.74
2019-04-12T10:16:08.165Z,55.46
2019-04-12T10:17:08.162Z,55.74
2019-04-12T10:18:08.150Z,55.83
2019-04-12T10:19:08.146Z,55.93
2019-04-12T10:20:07.897Z,56.41
2019-04-12T10:21:08.163Z,56.41
2019-04-12T10:22:09.048Z,56.88
2019-04-12T10:23:08.125Z,56.88
2019-04-12T10:24:08.119Z,57.45
2019-04-12T10:25:08.120Z,57.26
2019-04-12T10:26:07.867Z,56.88
2019-04-12T10:27:07.856Z,57.17
2019-04-12T10:28:08.113Z,56.44
2019-04-12T10:29:08.114Z,55.49
2019-04-12T10:30:07.846Z,55.39
2019-04-12T10:31:08.095Z,56.05
2019-04-12T10:32:08.081Z,55.96
2019-04-12T10:33:08.077Z,55.65
2019-04-12T10:34:08.108Z,55.68
2019-04-12T10:35:07.825Z,55.58
2019-04-12T10:36:08.075Z,55.58
2019-04-12T10:37:08.059Z,55.87
2019-04-12T10:38:08.050Z,56.12
2019-04-12T10:39:08.046Z,56.31
2019-04-12T10:40:10.657Z,55.68
2019-04-12T10:41:08.042Z,55.58
2019-04-12T10:42:08.040Z,55.68
2019-04-12T10:43:08.032Z,55.68
2019-04-12T10:44:08.030Z,55.58
2019-04-12T10:45:07.779Z,55.77
2019-04-12T10:46:08.015Z,55.77
2019-04-12T10:47:08.022Z,55.96
2019-04-12T10:48:08.007Z,55.01
2019-04-12T10:49:07.780Z,54.63
2019-04-12T10:50:07.811Z,53.99
2019-04-12T10:51:07.739Z,54.91
2019-04-12T10:52:07.988Z,55.58
2019-04-12T10:53:07.987Z,55.96
2019-04-12T10:54:07.728Z,55.68
2019-04-12T10:55:07.982Z,55.68
2019-04-12T10:56:07.973Z,54.53
2019-04-12T10:57:07.953Z,54.44
2019-04-12T10:58:07.965Z,54.44
2019-04-12T10:59:07.958Z,54.37
2019-04-12T11:00:07.951Z,54.08
2019-04-12T11:01:07.937Z,53.42
2019-04-12T11:02:08.039Z,53.42
2019-04-12T11:03:07.696Z,53.23
2019-04-12T11:04:07.938Z,53.32
2019-04-12T11:05:07.939Z,53.52
2019-04-12T11:06:07.937Z,53.89
2019-04-12T11:07:07.917Z,53.7
2019-04-12T11:08:07.663Z,53.99
2019-04-12T11:09:07.655Z,53.32
2019-04-12T11:10:07.896Z,53.52
2019-04-12T11:11:09.964Z,53.52
2019-04-12T11:12:07.891Z,52.84
2019-04-12T11:13:07.895Z,53.42
2019-04-12T11:14:07.643Z,53.32
2019-04-12T11:15:20.203Z,53.8
2019-04-12T11:16:07.878Z,54.27
2019-04-12T11:17:07.867Z,54.37
2019-04-12T11:18:07.617Z,53.8
2019-04-12T11:19:07.861Z,54.27
2019-04-12T11:20:07.857Z,53.52
2019-04-12T11:21:07.896Z,53.42
2019-04-12T11:22:07.849Z,52.56
2019-04-12T11:23:07.846Z,52.47
2019-04-12T11:24:07.875Z,52.66
2019-04-12T11:25:07.834Z,52.59
2019-04-12T11:26:07.580Z,52.18
2019-04-12T11:27:07.823Z,52.56
2019-04-12T11:28:07.830Z,52.68
2019-04-12T11:29:19.153Z,52.11
2019-04-12T11:30:07.833Z,52.11
2019-04-12T11:31:07.801Z,52.01
2019-04-12T11:32:07.579Z,52.59
2019-04-12T11:33:07.802Z,52.56
2019-04-12T11:34:07.795Z,52.56
2019-04-12T11:35:10.207Z,52.56
2019-04-12T11:36:07.539Z,53.04
2019-04-12T11:37:07.788Z,52.47
2019-04-12T11:38:07.539Z,52.28
2019-04-12T11:39:07.775Z,51.73
2019-04-12T11:40:07.766Z,51.89
2019-04-12T11:41:07.768Z,52.01
2019-04-12T11:42:07.759Z,51.25
2019-04-12T11:43:07.756Z,51.54
2019-04-12T11:44:07.536Z,51.35
2019-04-12T11:45:07.751Z,51.25
2019-04-12T11:46:07.746Z,51.25
2019-04-12T11:47:07.740Z,51.64
2019-04-12T11:48:07.737Z,52.78
2019-04-12T11:49:07.740Z,52.11
2019-04-12T11:50:07.731Z,54.02
2019-04-12T11:51:07.726Z,53.06
2019-04-12T11:52:07.728Z,51.82
2019-04-12T11:53:07.466Z,51.35
2019-04-12T11:54:07.469Z,50.13
2019-04-12T11:55:07.716Z,50.23
2019-04-12T11:56:07.717Z,50.42
2019-04-12T11:57:07.714Z,50.23
2019-04-12T11:58:07.448Z,50.04
2019-04-12T11:59:07.453Z,50.11
2019-04-12T12:00:07.722Z,50.23
2019-04-12T12:01:07.441Z,49.47
2019-04-12T12:02:07.447Z,49.76
2019-04-12T12:03:07.720Z,49.18
2019-04-12T12:04:07.677Z,49.11
2019-04-12T12:05:07.430Z,50.61
2019-04-12T12:06:07.685Z,50.04
2019-04-12T12:07:07.673Z,49.18
2019-04-12T12:08:09.408Z,49.08
2019-04-12T12:09:07.686Z,50.23
2019-04-12T12:10:07.668Z,49.97
2019-04-12T12:11:07.668Z,49.11
2019-04-12T12:12:07.662Z,48.92
2019-04-12T12:13:07.395Z,47.97
2019-04-12T12:14:07.388Z,47.49
2019-04-12T12:15:07.393Z,48.07
2019-04-12T12:16:07.645Z,48.07
2019-04-12T12:17:07.664Z,48.16
2019-04-12T12:18:07.633Z,47.58
2019-04-12T12:19:07.627Z,47.39
2019-04-12T12:20:07.629Z,47.39
2019-04-12T12:21:07.377Z,48.54
2019-04-12T12:22:07.625Z,47.8
2019-04-12T12:23:07.421Z,47.13
2019-04-12T12:24:07.630Z,47.13
2019-04-12T12:25:07.360Z,47.58
2019-04-12T12:26:07.604Z,47.97
2019-04-12T12:27:07.609Z,49.02
2019-04-12T12:28:07.601Z,49.3
2019-04-12T12:29:07.355Z,50.07
2019-04-12T12:30:07.384Z,50.52
2019-04-12T12:31:07.344Z,50.42
2019-04-12T12:32:07.586Z,50.71
2019-04-12T12:33:07.584Z,50.9
2019-04-12T12:34:07.334Z,51.18
2019-04-12T12:35:07.623Z,51.35
2019-04-12T12:36:07.329Z,51.92
2019-04-12T12:37:07.332Z,52.01
2019-04-12T12:38:10.829Z,51.73
2019-04-12T12:39:07.585Z,52.11
2019-04-12T12:40:07.562Z,51.06
2019-04-12T12:41:07.563Z,50.9
2019-04-12T12:42:07.554Z,50.04
2019-04-12T12:43:07.333Z,50.42
2019-04-12T12:44:07.549Z,50.23
2019-04-12T12:45:07.536Z,50.42
2019-04-12T12:46:07.287Z,50.13
2019-04-12T12:47:07.530Z,50.04
2019-04-12T12:48:07.280Z,49.56
2019-04-12T12:49:07.531Z,49.18
2019-04-12T12:50:07.536Z,49.11
2019-04-12T12:51:07.522Z,49.08
2019-04-12T12:52:07.523Z,48.9
2019-04-12T12:53:07.269Z,49.18
2019-04-12T12:54:07.507Z,48.9